Time;durP1;ratioP1;P1;durP2;ratioP2;P2;SDS_P1;SDS_P2;PMS_P1;PMS_P2;Temp;Humidity;BMP_temperature;BMP_pressure;BME280_temperature;BME280_humidity;BME280_pressure;Samples;Min_cycle;Max_cycle;Signal;HPM_P1;HPM_P2
2024/02/09 00:00:21;;;;;;;;;;;;;;;7.09;100.00;98641.91;5112767;27;20012;-74
2024/02/09 00:02:46;;;;;;;;;;;;;;;7.11;100.00;98640.03;5122505;27;19919;-74
2024/02/09 00:05:13;;;;;;;;;;;;;;;7.14;100.00;98630.34;5125192;27;19927;-74
2024/02/09 00:07:39;;;;;;;;;;;;;;;7.15;100.00;98626.81;5122107;27;19927;-74
2024/02/09 00:10:05;;;;;;;;;;;;;;;7.15;100.00;98608.59;5114054;28;19920;-74
2024/02/09 00:12:30;;;;;;;;;;;;;;;7.17;100.00;98601.50;5112590;28;19951;-74
2024/02/09 00:14:58;;;;;;;;;;;;;;;7.18;100.00;98596.22;5096924;28;19923;-74
2024/02/09 00:17:24;;;;;;;;;;;;;;;7.19;100.00;98592.69;5116079;28;19919;-74
2024/02/09 00:19:50;;;;;;;;;;;;;;;7.18;100.00;98585.81;5114864;28;20297;-74
2024/02/09 00:22:15;;;;;;;;;;;;;;;7.21;100.00;98580.41;5116104;28;19915;-74
2024/02/09 00:24:42;;;;;;;;;;;;;;;7.26;100.00;98577.53;5116880;28;19919;-74
2024/02/09 00:27:07;;;;;;;;;;;;;;;7.27;100.00;98573.97;5116480;28;19919;-74
2024/02/09 00:29:33;;;;;;;;;;;;;;;7.29;100.00;98583.38;5116561;28;19927;-74
2024/02/09 00:31:58;;;;;;;;;;;;;;;7.30;100.00;98581.59;5094885;28;19993;-74
2024/02/09 00:34:23;;;;;;;;;;;;;;;7.33;100.00;98575.34;5102786;28;20275;-74
2024/02/09 00:36:49;;;;;;;;;;;;;;;7.35;100.00;98563.06;5109377;28;19973;-74
2024/02/09 00:39:15;;;;;;;;;;;;;;;7.37;100.00;98559.44;5099472;28;19924;-74
2024/02/09 00:41:40;;;;;;;;;;;;;;;7.41;100.00;98554.88;5089612;28;20166;-74
2024/02/09 00:44:05;;;;;;;;;;;;;;;7.41;100.00;98550.50;5091693;28;19920;-74
2024/02/09 00:46:32;;;;;;;;;;;;;;;7.43;100.00;98546.03;5093428;28;19919;-74
2024/02/09 00:49:02;;;;;;;;;;;;;;;7.46;100.00;98538.03;5093126;28;19920;-74
2024/02/09 00:51:28;;;;;;;;;;;;;;;7.49;100.00;98534.38;5096087;28;19920;-75
2024/02/09 00:53:53;;;;;;;;;;;;;;;7.50;100.00;98533.47;5114413;28;20134;-75
2024/02/09 00:56:18;;;;;;;;;;;;;;;7.48;100.00;98533.56;5100597;28;19924;-75
2024/02/09 00:58:43;;;;;;;;;;;;;;;7.48;100.00;98520.53;5091537;28;20246;-75
2024/02/09 01:01:09;;;;;;;;;;;;;;;7.53;100.00;98517.63;5091425;28;20203;-75
2024/02/09 01:03:35;;;;;;;;;;;;;;;7.53;100.00;98509.81;5078164;28;19926;-74
2024/02/09 01:06:00;;;;;;;;;;;;;;;7.55;100.00;98504.50;5096614;28;20146;-74
2024/02/09 01:08:27;;;;;;;;;;;;;;;7.57;100.00;98505.25;5077838;28;19919;-74
2024/02/09 01:10:53;;;;;;;;;;;;;;;7.59;100.00;98501.59;5095474;28;19939;-74
2024/02/09 02:46:13;;;;;;;;;;;;;;;8.04;100.00;98363.94;5094420;28;19951;-75
2024/02/09 03:05:02;;;;;;;;;;;;;;;8.08;100.00;98320.25;5089608;28;19926;-75
2024/02/09 03:07:28;;;;;;;;;;;;;;;8.08;100.00;98323.66;5084412;28;20187;-75
2024/02/09 03:09:53;;;;;;;;;;;;;;;8.08;100.00;98323.66;5072776;28;19946;-75
2024/02/09 03:12:18;;;;;;;;;;;;;;;8.09;100.00;98316.66;5092809;28;19965;-75
2024/02/09 03:14:44;;;;;;;;;;;;;;;8.10;100.00;98309.72;5089825;28;19920;-75
2024/02/09 03:17:09;;;;;;;;;;;;;;;8.10;100.00;98312.31;5093869;28;19920;-75
2024/02/09 03:19:35;;;;;;;;;;;;;;;8.13;100.00;98306.84;5092708;28;19916;-75
2024/02/09 03:22:00;;;;;;;;;;;;;;;8.12;100.00;98302.59;5090665;28;19912;-75
2024/02/09 03:24:26;;;;;;;;;;;;;;;8.11;100.00;98296.53;5093020;28;19947;-75
2024/02/09 03:26:51;;;;;;;;;;;;;;;8.12;100.00;98293.00;5090692;28;19920;-74
2024/02/09 03:29:16;;;;;;;;;;;;;;;8.12;100.00;98293.00;5091061;28;19920;-74
2024/02/09 03:31:42;;;;;;;;;;;;;;;8.12;100.00;98292.19;5106852;28;19961;-74
2024/02/09 03:34:08;;;;;;;;;;;;;;;8.12;100.00;98287.78;5112891;28;20203;-74
2024/02/09 03:36:34;;;;;;;;;;;;;;;8.14;100.00;98285.06;5114024;28;19919;-74
2024/02/09 03:39:01;;;;;;;;;;;;;;;8.14;100.00;98292.91;5115501;28;19924;-74
2024/02/09 03:41:27;;;;;;;;;;;;;;;8.14;100.00;98287.69;5117333;28;19920;-74
2024/02/09 03:43:52;;;;;;;;;;;;;;;8.14;100.00;98275.47;5117199;28;19927;-74
2024/02/09 03:46:19;;;;;;;;;;;;;;;8.16;100.00;98285.78;5117425;28;19919;-74
2024/02/09 03:48:44;;;;;;;;;;;;;;;8.16;100.00;98275.38;5118177;28;19920;-75
2024/02/09 03:51:10;;;;;;;;;;;;;;;8.17;100.00;98277.03;5119594;28;19955;-75
2024/02/09 03:53:35;;;;;;;;;;;;;;;8.16;100.00;98259.72;5119334;28;19912;-75
2024/02/09 03:56:00;;;;;;;;;;;;;;;8.17;100.00;98275.25;5118981;28;20097;-75
2024/02/09 03:58:26;;;;;;;;;;;;;;;8.17;100.00;98271.84;5119503;28;19962;-75
2024/02/09 04:00:51;;;;;;;;;;;;;;;8.17;100.00;98275.25;5119100;28;20002;-75
2024/02/09 04:03:17;;;;;;;;;;;;;;;8.21;100.00;98266.28;5106638;28;19984;-75
2024/02/09 04:05:43;;;;;;;;;;;;;;;8.19;100.00;98273.38;5119362;28;19945;-75
2024/02/09 04:08:08;;;;;;;;;;;;;;;8.21;100.00;98268.88;5118848;28;20239;-75
2024/02/09 04:10:36;;;;;;;;;;;;;;;8.22;100.00;98260.13;5119131;28;19919;-75
2024/02/09 04:13:04;;;;;;;;;;;;;;;8.22;100.00;98257.53;5118737;28;20219;-75
2024/02/09 04:15:29;;;;;;;;;;;;;;;8.23;100.00;98261.78;5118502;28;19920;-75
2024/02/09 04:17:54;;;;;;;;;;;;;;;8.23;100.00;98255.72;5118462;28;19920;-75
2024/02/09 04:20:19;;;;;;;;;;;;;;;8.23;100.00;98248.75;5118780;28;19919;-75
2024/02/09 04:22:45;;;;;;;;;;;;;;;8.24;100.00;98260.00;5118635;28;19956;-75
2024/02/09 04:25:10;;;;;;;;;;;;;;;8.26;100.00;98252.91;5117434;28;19964;-75
2024/02/09 04:27:36;;;;;;;;;;;;;;;8.28;100.00;98258.84;5118472;28;19920;-75
2024/02/09 04:30:01;;;;;;;;;;;;;;;8.30;100.00;98253.53;5118042;28;19928;-75
2024/02/09 04:32:27;;;;;;;;;;;;;;;8.30;100.00;98246.53;5116990;28;20041;-75
2024/02/09 04:34:52;;;;;;;;;;;;;;;8.29;100.00;98247.47;5118459;28;19919;-75
2024/02/09 04:37:21;;;;;;;;;;;;;;;8.27;100.00;98237.13;5118361;28;19920;-75
2024/02/09 04:39:46;;;;;;;;;;;;;;;8.27;100.00;98238.91;5118074;28;19965;-75
2024/02/09 04:42:12;;;;;;;;;;;;;;;8.27;100.00;98234.53;5117688;28;19924;-75
2024/02/09 04:44:38;;;;;;;;;;;;;;;8.27;100.00;98234.53;5118179;28;19923;-75
2024/02/09 04:47:03;;;;;;;;;;;;;;;8.25;100.00;98233.81;5117362;28;19919;-75
2024/02/09 04:49:28;;;;;;;;;;;;;;;8.27;100.00;98226.69;5117933;28;19919;-75
2024/02/09 04:51:54;;;;;;;;;;;;;;;8.25;100.00;98227.78;5117490;28;20107;-75
2024/02/09 04:54:19;;;;;;;;;;;;;;;8.25;100.00;98225.16;5118063;28;20114;-75
2024/02/09 04:56:44;;;;;;;;;;;;;;;8.24;100.00;98215.66;5117629;28;20010;-75
2024/02/09 04:59:10;;;;;;;;;;;;;;;8.25;100.00;98215.56;5117207;28;20211;-75
2024/02/09 05:01:39;;;;;;;;;;;;;;;8.22;100.00;98215.81;5099465;28;20200;-75
2024/02/09 05:04:22;;;;;;;;;;;;;;;8.24;100.00;98220.88;5098416;28;19969;-75
2024/02/09 05:06:50;;;;;;;;;;;;;;;8.25;100.00;98222.56;5118106;28;19926;-75
2024/02/09 05:09:18;;;;;;;;;;;;;;;8.23;100.00;98214.84;5098725;28;19919;-75
2024/02/09 05:11:43;;;;;;;;;;;;;;;8.25;100.00;98212.13;5118343;28;20195;-75
2024/02/09 05:14:09;;;;;;;;;;;;;;;8.27;100.00;98211.06;5116719;28;19919;-75
2024/02/09 05:16:36;;;;;;;;;;;;;;;8.29;100.00;98202.31;5117505;28;19920;-75
2024/02/09 05:19:02;;;;;;;;;;;;;;;8.27;100.00;98207.63;5116353;28;19923;-75
2024/02/09 05:21:28;;;;;;;;;;;;;;;8.29;100.00;98200.53;5116047;28;19927;-75
2024/02/09 05:23:53;;;;;;;;;;;;;;;8.31;100.00;98203.03;5115769;28;19920;-75
2024/02/09 05:26:19;;;;;;;;;;;;;;;8.31;100.00;98200.41;5116786;28;19918;-75
2024/02/09 05:28:46;;;;;;;;;;;;;;;8.31;100.00;98200.41;5098980;28;19972;-75
2024/02/09 05:31:13;;;;;;;;;;;;;;;8.31;100.00;98195.19;5116437;28;19915;-75
2024/02/09 05:33:38;;;;;;;;;;;;;;;8.30;100.00;98190.94;5116749;28;20195;-75
2024/02/09 05:36:04;;;;;;;;;;;;;;;8.28;100.00;98185.84;5116644;28;19995;-75
2024/02/09 05:38:32;;;;;;;;;;;;;;;8.31;100.00;98187.38;5116791;28;19915;-75
2024/02/09 05:40:58;;;;;;;;;;;;;;;8.30;100.00;98189.16;5115980;28;20439;-75
2024/02/09 05:43:23;;;;;;;;;;;;;;;8.32;100.00;98181.22;5117131;28;19920;-75
2024/02/09 05:45:48;;;;;;;;;;;;;;;8.30;100.00;98188.34;5116278;28;20074;-75
2024/02/09 05:48:16;;;;;;;;;;;;;;;8.34;100.00;98184.56;5115853;28;19927;-75
2024/02/09 05:50:42;;;;;;;;;;;;;;;8.33;100.00;98191.56;5116611;28;20019;-75
2024/02/09 05:53:08;;;;;;;;;;;;;;;8.33;100.00;98178.50;5113820;28;19915;-75
2024/02/09 05:55:34;;;;;;;;;;;;;;;8.35;100.00;98181.84;5112935;28;19919;-75
2024/02/09 05:58:00;;;;;;;;;;;;;;;8.35;100.00;98184.44;5116126;28;19947;-75
2024/02/09 06:00:25;;;;;;;;;;;;;;;8.34;100.00;98181.94;5115453;28;19931;-75
2024/02/09 06:02:51;;;;;;;;;;;;;;;8.37;100.00;98181.72;5116312;28;19930;-75
2024/02/09 06:05:19;;;;;;;;;;;;;;;8.36;100.00;98175.66;5114164;28;19920;-75
2024/02/09 06:07:45;;;;;;;;;;;;;;;8.36;100.00;98180.06;5097862;28;19920;-75
2024/02/09 06:10:10;;;;;;;;;;;;;;;8.37;100.00;98181.72;5114037;28;20123;-75
2024/02/09 06:12:37;;;;;;;;;;;;;;;8.39;100.00;98174.63;5098895;28;20112;-75
2024/02/09 06:15:03;;;;;;;;;;;;;;;8.39;100.00;98174.63;5112487;28;19916;-74
2024/02/09 06:17:28;;;;;;;;;;;;;;;8.38;100.00;98175.53;5114674;28;20272;-75
2024/02/09 06:19:54;;;;;;;;;;;;;;;8.39;100.00;98172.00;5116104;28;20237;-75
2024/02/09 06:22:19;;;;;;;;;;;;;;;8.37;100.00;98169.50;5115058;28;19924;-75
2024/02/09 06:24:44;;;;;;;;;;;;;;;8.39;100.00;98170.22;5115853;28;19920;-75
2024/02/09 06:27:11;;;;;;;;;;;;;;;8.38;100.00;98168.53;5116092;28;19978;-75
2024/02/09 06:29:38;;;;;;;;;;;;;;;8.40;100.00;98171.91;5115017;28;19920;-75
2024/02/09 06:32:03;;;;;;;;;;;;;;;8.40;100.00;98173.66;5116224;28;20111;-75
2024/02/09 06:34:29;;;;;;;;;;;;;;;8.38;100.00;98165.94;5114902;28;19931;-75
2024/02/09 06:36:54;;;;;;;;;;;;;;;8.39;100.00;98174.63;5114735;28;19911;-75
2024/02/09 06:39:19;;;;;;;;;;;;;;;8.39;100.00;98167.63;5115501;28;19923;-75
2024/02/09 06:41:45;;;;;;;;;;;;;;;8.39;100.00;98172.81;5114277;28;19924;-75
2024/02/09 06:44:10;;;;;;;;;;;;;;;8.39;100.00;98177.22;5114456;28;19926;-75
2024/02/09 06:46:35;;;;;;;;;;;;;;;8.40;100.00;98166.69;5116433;28;19986;-75
2024/02/09 06:49:01;;;;;;;;;;;;;;;8.40;100.00;98168.44;5097963;28;19919;-75
2024/02/09 06:51:26;;;;;;;;;;;;;;;8.40;100.00;98164.06;5116768;28;20274;-75
2024/02/09 06:53:55;;;;;;;;;;;;;;;8.41;100.00;98160.50;5116179;28;19926;-75
2024/02/09 06:56:20;;;;;;;;;;;;;;;8.41;100.00;98162.28;5116742;28;20215;-75
2024/02/09 06:58:46;;;;;;;;;;;;;;;8.42;100.00;98169.19;5115093;28;19931;-75
2024/02/09 07:01:11;;;;;;;;;;;;;;;8.43;100.00;98166.47;5115865;28;19966;-75
2024/02/09 07:03:40;;;;;;;;;;;;;;;8.44;100.00;98172.50;5112293;28;19950;-75
2024/02/09 07:06:07;;;;;;;;;;;;;;;8.45;100.00;98166.34;5113455;28;19924;-75
2024/02/09 07:08:39;;;;;;;;;;;;;;;8.47;100.00;98174.91;5110108;28;19927;-75
2024/02/09 07:11:05;;;;;;;;;;;;;;;8.48;100.00;98176.56;5114804;28;19961;-75
2024/02/09 07:13:30;;;;;;;;;;;;;;;8.49;100.00;98170.38;5117560;28;19923;-75
2024/02/09 07:15:55;;;;;;;;;;;;;;;8.50;100.00;98173.84;5116267;28;19920;-75
2024/02/09 07:18:20;;;;;;;;;;;;;;;8.49;100.00;98169.56;5117181;28;20265;-75
2024/02/09 07:20:46;;;;;;;;;;;;;;;8.51;100.00;98175.50;5101940;28;20161;-75
2024/02/09 07:23:11;;;;;;;;;;;;;;;8.52;100.00;98171.97;5118956;28;19926;-75
2024/02/09 07:25:36;;;;;;;;;;;;;;;8.53;100.00;98173.59;5119136;28;19937;-75
2024/02/09 07:28:02;;;;;;;;;;;;;;;8.51;100.00;98173.72;5118312;28;20121;-75
2024/02/09 07:30:27;;;;;;;;;;;;;;;8.55;100.00;98187.34;5118154;28;19923;-75
2024/02/09 07:32:52;;;;;;;;;;;;;;;8.54;100.00;98190.94;5117746;28;19958;-75
2024/02/09 07:35:17;;;;;;;;;;;;;;;8.55;100.00;98185.59;5118088;28;19923;-75
2024/02/09 07:37:43;;;;;;;;;;;;;;;8.57;100.00;98177.66;5117877;28;19945;-75
2024/02/09 07:40:09;;;;;;;;;;;;;;;8.60;100.00;98188.72;5117458;28;20472;-75
2024/02/09 07:42:34;;;;;;;;;;;;;;;8.58;100.00;98177.53;5117616;28;19990;-75
2024/02/09 07:44:59;;;;;;;;;;;;;;;8.61;100.00;98192.97;5117110;28;19923;-75
2024/02/09 07:47:25;;;;;;;;;;;;;;;8.64;100.00;98189.28;5117621;28;19919;-75
2024/02/09 07:49:50;;;;;;;;;;;;;;;8.67;100.00;98196.88;5118185;28;19974;-75
2024/02/09 07:52:15;;;;;;;;;;;;;;;8.64;100.00;98189.28;5118377;28;19923;-75
2024/02/09 07:54:50;;;;;;;;;;;;;;;8.64;100.00;98192.75;5114727;27;20033;-75
2024/02/09 07:57:15;;;;;;;;;;;;;;;8.66;100.00;98190.03;5124304;27;19923;-74
2024/02/09 07:59:42;;;;;;;;;;;;;;;8.68;100.00;98195.09;5119236;28;19930;-74
2024/02/09 08:02:07;;;;;;;;;;;;;;;8.70;100.00;98199.28;5119563;28;20168;-74
2024/02/09 08:04:33;;;;;;;;;;;;;;;8.75;100.00;98210.19;5100906;28;19924;-74
2024/02/09 08:06:58;;;;;;;;;;;;;;;8.78;100.00;98206.53;5101064;28;19926;-74
2024/02/09 08:09:23;;;;;;;;;;;;;;;8.79;100.00;98192.53;5118670;28;19919;-74
2024/02/09 08:11:49;;;;;;;;;;;;;;;8.80;100.00;98199.41;5118486;28;19919;-74
2024/02/09 08:14:14;;;;;;;;;;;;;;;8.82;100.00;98208.78;5118817;28;19916;-74
2024/02/09 08:16:39;;;;;;;;;;;;;;;8.84;100.00;98200.81;5118620;28;20211;-74
2024/02/09 08:19:09;;;;;;;;;;;;;;;8.81;100.00;98214.94;5118632;28;19919;-74
2024/02/09 08:21:36;;;;;;;;;;;;;;;8.82;100.00;98210.56;5118685;28;20171;-74
2024/02/09 08:24:01;;;;;;;;;;;;;;;8.80;100.00;98215.06;5117644;28;19951;-74
2024/02/09 08:26:26;;;;;;;;;;;;;;;8.81;100.00;98211.50;5108923;28;20373;-74
2024/02/09 08:28:52;;;;;;;;;;;;;;;8.82;100.00;98221.00;5105994;28;19981;-74
2024/02/09 08:31:17;;;;;;;;;;;;;;;8.84;100.00;98219.94;5109893;28;19928;-74
2024/02/09 08:33:52;;;;;;;;;;;;;;;8.85;100.00;98218.16;5112398;28;20123;-74
2024/02/09 08:36:21;;;;;;;;;;;;;;;8.84;100.00;98219.94;5097710;28;20191;-74
2024/02/09 08:38:46;;;;;;;;;;;;;;;8.90;100.00;98220.44;5076036;28;19920;-74
2024/02/09 08:41:12;;;;;;;;;;;;;;;8.94;100.00;98219.25;5095370;28;20433;-74
2024/02/09 08:43:37;;;;;;;;;;;;;;;8.96;100.00;98233.00;5098914;28;20157;-74
2024/02/09 08:46:02;;;;;;;;;;;;;;;8.96;100.00;98227.78;5093429;28;19956;-74
2024/02/09 08:48:28;;;;;;;;;;;;;;;9.00;100.00;98227.47;5102017;28;19923;-74
2024/02/09 08:50:53;;;;;;;;;;;;;;;8.97;100.00;98240.72;5113038;28;19932;-74
2024/02/09 08:53:18;;;;;;;;;;;;;;;8.94;100.00;98246.19;5110585;28;19916;-74
2024/02/09 08:55:43;;;;;;;;;;;;;;;8.97;100.00;98242.53;5112007;28;20252;-74
2024/02/09 08:58:08;;;;;;;;;;;;;;;8.99;100.00;98243.22;5111634;28;19943;-74
2024/02/09 09:00:34;;;;;;;;;;;;;;;9.00;100.00;98239.66;5088201;28;19939;-74
2024/02/09 09:02:59;;;;;;;;;;;;;;;9.05;100.00;98241.94;5100550;28;19916;-74
2024/02/09 09:05:26;;;;;;;;;;;;;;;9.03;100.00;98232.44;5110727;28;19922;-74
2024/02/09 09:07:52;;;;;;;;;;;;;;;9.01;100.00;98250.00;5111094;28;19923;-74
2024/02/09 09:10:17;;;;;;;;;;;;;;;9.01;100.00;98250.00;5099892;28;19916;-74
2024/02/09 09:12:42;;;;;;;;;;;;;;;9.05;100.00;98252.38;5097293;28;19926;-74
2024/02/09 09:15:08;;;;;;;;;;;;;;;9.10;100.00;98247.66;5099880;28;19915;-74
2024/02/09 09:17:33;;;;;;;;;;;;;;;9.13;100.00;98245.63;5099521;28;20131;-75
2024/02/09 09:19:58;;;;;;;;;;;;;;;9.15;100.00;98250.72;5097125;28;19921;-74
2024/02/09 09:22:24;;;;;;;;;;;;;;;9.18;100.00;98248.69;5097155;28;19920;-74
2024/02/09 09:24:49;;;;;;;;;;;;;;;9.23;100.00;98254.41;5096151;28;19916;-74
2024/02/09 09:27:15;;;;;;;;;;;;;;;9.26;100.00;98252.50;5095538;28;19991;-75
2024/02/09 09:29:40;;;;;;;;;;;;;;;9.26;100.00;98255.13;5111193;28;20098;-75
2024/02/09 09:32:05;;;;;;;;;;;;;;;9.28;100.00;98254.06;5109999;28;19924;-75
2024/02/09 09:34:32;;;;;;;;;;;;;;;9.31;100.00;98259.03;5102098;28;19920;-75
2024/02/09 09:36:58;;;;;;;;;;;;;;;9.31;100.00;98253.81;5096809;28;19924;-74
2024/02/09 09:39:23;;;;;;;;;;;;;;;9.31;100.00;98263.44;5096530;28;19962;-74
2024/02/09 09:41:50;;;;;;;;;;;;;;;9.33;100.00;98257.16;5098204;28;19919;-75
2024/02/09 09:44:15;;;;;;;;;;;;;;;9.38;100.00;98262.03;5091835;28;19947;-75
2024/02/09 09:46:45;;;;;;;;;;;;;;;9.43;100.00;98256.47;5108454;28;19965;-75
2024/02/09 09:49:10;;;;;;;;;;;;;;;9.48;100.00;98268.22;5090804;28;20296;-74
2024/02/09 09:51:36;;;;;;;;;;;;;;;9.48;100.00;98272.59;5111621;28;19923;-74
2024/02/09 09:54:02;;;;;;;;;;;;;;;9.51;100.00;98262.72;5109394;28;19944;-75
2024/02/09 09:56:29;;;;;;;;;;;;;;;9.49;100.00;98266.44;5108709;28;19916;-74
2024/02/09 09:58:54;;;;;;;;;;;;;;;9.50;100.00;98275.94;5109740;28;19924;-74
2024/02/09 10:01:20;;;;;;;;;;;;;;;9.47;100.00;98266.53;5090856;28;20230;-75
2024/02/09 10:03:46;;;;;;;;;;;;;;;9.50;100.00;98279.38;5110878;28;21161;-74
2024/02/09 10:06:11;;;;;;;;;;;;;;;9.48;100.00;98267.34;5109588;28;20214;-75
2024/02/09 10:08:36;;;;;;;;;;;;;;;9.52;100.00;98272.25;5104584;28;19916;-74
2024/02/09 10:11:02;;;;;;;;;;;;;;;9.58;100.00;98271.75;5098267;28;19923;-74
2024/02/09 10:13:28;;;;;;;;;;;;;;;9.61;100.00;98275.94;5096845;28;19920;-74
2024/02/09 10:15:55;;;;;;;;;;;;;;;9.60;100.00;98279.47;5106115;28;20135;-74
2024/02/09 10:18:20;;;;;;;;;;;;;;;9.64;100.00;98280.06;5099679;28;20241;-74
2024/02/09 10:20:46;;;;;;;;;;;;;;;9.65;100.00;98277.34;5094722;28;19991;-74
2024/02/09 10:23:12;;;;;;;;;;;;;;;9.69;100.00;98281.38;5096783;28;20215;-74
2024/02/09 10:25:39;;;;;;;;;;;;;;;9.73;100.00;98275.00;5093847;28;20179;-75
2024/02/09 10:28:04;;;;;;;;;;;;;;;9.74;100.00;98281.84;5077502;28;19973;-75
2024/02/09 10:30:29;;;;;;;;;;;;;;;9.80;100.00;98285.78;5097149;28;19976;-74
2024/02/09 10:32:55;;;;;;;;;;;;;;;9.85;100.00;98285.44;5088552;28;20208;-74
2024/02/09 10:35:20;;;;;;;;;;;;;;;9.92;100.00;98291.84;5113900;28;19916;-74
2024/02/09 10:37:47;;;;;;;;;;;;;;;9.88;100.00;98296.47;5112786;28;19947;-74
2024/02/09 10:40:12;;;;;;;;;;;;;;;9.89;100.00;98299.91;5106755;28;19996;-74
2024/02/09 10:42:39;;;;;;;;;;;;;;;9.87;100.00;98312.28;5109452;28;19920;-74
2024/02/09 10:45:08;;;;;;;;;;;;;;;9.88;100.00;98303.50;5109192;28;20149;-74
2024/02/09 10:47:33;;;;;;;;;;;;;;;9.88;100.00;98299.09;5109394;28;19924;-74
2024/02/09 10:50:01;;;;;;;;;;;;;;;9.89;100.00;98305.16;5114770;28;19916;-74
2024/02/09 10:52:28;;;;;;;;;;;;;;;9.87;100.00;98307.88;5113690;28;20257;-74
2024/02/09 10:54:56;;;;;;;;;;;;;;;9.84;100.00;98315.13;5111895;28;19983;-74
2024/02/09 10:57:26;;;;;;;;;;;;;;;9.85;100.00;98319.41;5114283;28;20250;-74
2024/02/09 10:59:51;;;;;;;;;;;;;;;9.82;100.00;98320.47;5110823;28;20264;-74
2024/02/09 11:02:17;;;;;;;;;;;;;;;9.80;100.00;98314.53;5113148;28;20016;-75
2024/02/09 11:04:43;;;;;;;;;;;;;;;9.83;100.00;98314.31;5114604;28;20123;-74
2024/02/09 11:07:09;;;;;;;;;;;;;;;9.84;100.00;98321.22;5113996;28;19919;-74
2024/02/09 11:09:35;;;;;;;;;;;;;;;9.87;100.00;98310.50;5111925;28;19915;-74
2024/02/09 11:12:04;;;;;;;;;;;;;;;9.88;100.00;98319.19;5112487;28;19991;-74
2024/02/09 11:14:30;;;;;;;;;;;;;;;9.90;100.00;98310.25;5114674;28;19947;-74
2024/02/09 11:16:59;;;;;;;;;;;;;;;9.94;100.00;98311.66;5114301;28;19986;-74
2024/02/09 11:19:25;;;;;;;;;;;;;;;10.02;100.00;98312.84;5093911;28;19981;-74
2024/02/09 11:22:00;;;;;;;;;;;;;;;10.07;100.00;98311.53;5114442;28;20031;-74
2024/02/09 11:24:26;;;;;;;;;;;;;;;10.12;100.00;98313.81;5113227;28;19923;-74
2024/02/09 11:26:51;;;;;;;;;;;;;;;10.18;100.00;98314.13;5113444;28;20000;-74
2024/02/09 11:29:19;;;;;;;;;;;;;;;10.24;100.00;98315.47;5109893;28;19960;-74
2024/02/09 11:31:50;;;;;;;;;;;;;;;10.28;100.00;98316.88;5113901;28;19924;-74
2024/02/09 11:34:16;;;;;;;;;;;;;;;10.26;100.00;98324.00;5095821;28;19943;-74
2024/02/09 11:36:43;;;;;;;;;;;;;;;10.23;100.00;98320.81;5112337;28;20276;-74
2024/02/09 11:39:10;;;;;;;;;;;;;;;10.14;100.00;98323.19;5113602;28;19969;-74
2024/02/09 11:41:35;;;;;;;;;;;;;;;10.12;100.00;98326.88;5095544;28;19983;-74
2024/02/09 11:44:00;;;;;;;;;;;;;;;10.13;100.00;98312.84;5111630;28;19926;-74
2024/02/09 11:46:26;;;;;;;;;;;;;;;10.16;100.00;98315.22;5112381;28;19966;-74
2024/02/09 11:48:51;;;;;;;;;;;;;;;10.10;100.00;98313.91;5113312;28;19995;-74
2024/02/09 11:51:20;;;;;;;;;;;;;;;10.11;100.00;98325.19;5111435;28;19995;-74
2024/02/09 11:53:49;;;;;;;;;;;;;;;10.08;100.00;98320.25;5112272;28;19916;-74
2024/02/09 11:56:14;;;;;;;;;;;;;;;10.08;100.00;98312.38;5111036;28;19923;-74
2024/02/09 11:58:41;;;;;;;;;;;;;;;10.08;100.00;98320.25;5112148;28;20144;-74
2024/02/09 12:01:07;;;;;;;;;;;;;;;10.13;100.00;98316.31;5113138;28;19926;-74
2024/02/09 12:03:32;;;;;;;;;;;;;;;10.14;100.00;98317.13;5112351;28;20282;-74
2024/02/09 12:05:58;;;;;;;;;;;;;;;10.17;100.00;98317.72;5113302;28;20195;-74
2024/02/09 12:08:23;;;;;;;;;;;;;;;10.18;100.00;98323.78;5114033;28;20164;-74
2024/02/09 12:10:50;;;;;;;;;;;;;;;10.23;100.00;98318.19;5111972;28;19919;-74
2024/02/09 12:13:15;;;;;;;;;;;;;;;10.28;100.00;98322.09;5112665;28;19990;-74
2024/02/09 12:15:40;;;;;;;;;;;;;;;10.30;100.00;98325.41;5111998;28;19927;-74
2024/02/09 12:18:08;;;;;;;;;;;;;;;10.32;100.00;98315.69;5111645;28;19908;-74
2024/02/09 12:20:34;;;;;;;;;;;;;;;10.37;100.00;98313.53;5111812;28;19994;-74
2024/02/09 12:23:00;;;;;;;;;;;;;;;10.42;100.00;98317.56;5110884;28;20119;-74
2024/02/09 12:25:26;;;;;;;;;;;;;;;10.46;100.00;98316.38;5110502;28;20010;-74
2024/02/09 12:28:00;;;;;;;;;;;;;;;10.49;100.00;98316.13;5112136;28;19969;-74
2024/02/09 12:30:27;;;;;;;;;;;;;;;10.53;100.00;98323.63;5111819;28;20157;-74
2024/02/09 12:32:52;;;;;;;;;;;;;;;10.54;100.00;98322.66;5112934;28;19920;-74
2024/02/09 12:35:25;;;;;;;;;;;;;;;10.59;100.00;98322.28;5113442;28;19939;-74
2024/02/09 12:37:51;;;;;;;;;;;;;;;10.60;100.00;98320.50;5111280;28;20182;-74
2024/02/09 12:40:16;;;;;;;;;;;;;;;10.59;100.00;98330.16;5112516;28;19942;-74
2024/02/09 12:42:42;;;;;;;;;;;;;;;10.57;100.00;98325.03;5111076;28;20115;-74
2024/02/09 12:45:07;;;;;;;;;;;;;;;10.59;100.00;98326.66;5112037;28;19960;-74
2024/02/09 12:47:32;;;;;;;;;;;;;;;10.55;100.00;98333.94;5111936;28;19920;-74
2024/02/09 12:49:57;;;;;;;;;;;;;;;10.55;100.00;98331.31;5112202;28;19916;-74
2024/02/09 12:52:25;;;;;;;;;;;;;;;10.57;100.00;98330.25;5113237;28;19991;-74
2024/02/09 12:54:54;;;;;;;;;;;;;;;10.56;100.00;98330.38;5112765;28;19915;-74
2024/02/09 12:57:19;;;;;;;;;;;;;;;10.58;100.00;98328.47;5112874;28;20426;-74
2024/02/09 12:59:44;;;;;;;;;;;;;;;10.59;100.00;98324.91;5110918;28;20218;-74
2024/02/09 13:02:10;;;;;;;;;;;;;;;10.63;100.00;98328.09;5110816;28;19919;-74
2024/02/09 13:04:36;;;;;;;;;;;;;;;10.60;100.00;98329.16;5112509;28;19919;-74
2024/02/09 13:07:06;;;;;;;;;;;;;;;10.63;100.00;98328.09;5090626;28;19947;-74
2024/02/09 13:09:31;;;;;;;;;;;;;;;10.61;100.00;98319.56;5111824;28;19916;-74
2024/02/09 13:11:56;;;;;;;;;;;;;;;10.60;100.00;98321.31;5097176;28;19943;-74
2024/02/09 13:14:23;;;;;;;;;;;;;;;10.61;100.00;98330.84;5093988;28;20111;-74
2024/02/09 13:16:48;;;;;;;;;;;;;;;10.62;100.00;98319.41;5093939;28;19956;-74
2024/02/09 13:19:19;;;;;;;;;;;;;;;10.66;100.00;98323.47;5075933;28;20007;-74
2024/02/09 13:21:45;;;;;;;;;;;;;;;10.67;100.00;98325.09;5096075;28;20199;-74
2024/02/09 13:24:12;;;;;;;;;;;;;;;10.71;100.00;98330.91;5095849;28;20333;-74
2024/02/09 13:26:39;;;;;;;;;;;;;;;10.74;100.00;98321.03;5095313;28;19920;-74
2024/02/09 13:29:04;;;;;;;;;;;;;;;10.79;100.00;98333.75;5076188;28;20126;-74
2024/02/09 13:31:32;;;;;;;;;;;;;;;10.86;100.00;98328.84;5111305;28;19969;-74
2024/02/09 13:33:58;;;;;;;;;;;;;;;10.86;100.00;98339.31;5110300;28;19924;-74
2024/02/09 13:36:24;;;;;;;;;;;;;;;10.87;100.00;98335.75;5110789;28;19919;-74
2024/02/09 13:38:49;;;;;;;;;;;;;;;10.87;100.00;98331.34;5110649;28;20104;-74
2024/02/09 13:41:14;;;;;;;;;;;;;;;10.88;100.00;98340.88;5105786;28;20107;-74
2024/02/09 13:43:39;;;;;;;;;;;;;;;10.88;100.00;98338.25;5098135;27;20247;-74
2024/02/09 13:46:05;;;;;;;;;;;;;;;10.89;100.00;98336.44;5097403;27;19923;-74
2024/02/09 13:48:30;;;;;;;;;;;;;;;10.88;100.00;98332.19;5102660;27;19915;-74
2024/02/09 13:50:57;;;;;;;;;;;;;;;10.88;100.00;98335.63;5107768;27;19931;-74
2024/02/09 13:53:22;;;;;;;;;;;;;;;10.87;100.00;98335.75;5109646;27;20167;-74
2024/02/09 13:55:47;;;;;;;;;;;;;;;10.83;100.00;98342.19;5109826;28;20241;-74
2024/02/09 13:58:14;;;;;;;;;;;;;;;10.82;100.00;98341.34;5110243;27;20237;-74
2024/02/09 14:00:42;;;;;;;;;;;;;;;10.83;100.00;98343.03;5092904;28;20018;-74
2024/02/09 14:03:07;;;;;;;;;;;;;;;10.81;100.00;98337.09;5096076;28;20371;-74
2024/02/09 14:05:32;;;;;;;;;;;;;;;10.79;100.00;98336.38;5094156;28;19920;-74
2024/02/09 14:07:57;;;;;;;;;;;;;;;10.76;100.00;98352.31;5096149;28;19927;-74
2024/02/09 14:10:23;;;;;;;;;;;;;;;10.76;100.00;98332.22;5093967;28;19920;-74
2024/02/09 14:12:48;;;;;;;;;;;;;;;10.74;100.00;98335.91;5097098;28;19970;-74
2024/02/09 14:15:13;;;;;;;;;;;;;;;10.74;100.00;98339.34;5102483;28;20259;-74
2024/02/09 14:17:39;;;;;;;;;;;;;;;10.75;100.00;98334.94;5107704;28;19923;-74
2024/02/09 14:20:05;;;;;;;;;;;;;;;10.74;100.00;98336.75;5107286;28;19951;-74
2024/02/09 14:22:31;;;;;;;;;;;;;;;10.75;100.00;98338.41;5102516;28;19927;-74
2024/02/09 14:24:57;;;;;;;;;;;;;;;10.76;100.00;98326.97;5092011;28;20168;-74
2024/02/09 14:27:23;;;;;;;;;;;;;;;10.76;100.00;98332.22;5094537;28;20227;-74